Historyczne dane pomiarowe

Dodano dane terminowe – wersja testowa.

Dane z okresu 1951-2019

Wersja bazy: 1.34 [2019-03-16, lista zmian], aktualizacja planowana na 2019-04-15

Dane meteo z obszaru Polski uzyskane na podstawie danych udostępnionych przez Instytut Meteorologii i Gospodarki Wodnej – Państwowy Instytut Badawczy.

 

Wybierz Datę:    

       

TemperaturaWilgotnośćWiatrCiśnienieOpadyŚniegCzas trwania zjawisk
 Stacja t tx tn tng RH VA  wxwx mslp ppp RRR   cm mm wxwxwxwxwxwxwx
1975-07-16 22.6 28.6 19.0- 65.5- 4.7 1.7---- 1.7------------
1975-07-17 19.5 23.8 14.8- 69.3- 6.0 2.3---- 0.0------------
1975-07-18 18.4 25.9 10.5- 71.0- 6.3 0.7---- 1.4------------
1975-07-19 19.7 25.4 13.6- 78.8- 6.3 2.3---- 2.2------------
1975-07-20 18.5 21.6 15.6- 78.5- 7.0 5.0---- 2.3------------
1975-07-21 15.1 18.8 14.0- 94.5- 7.7 3.7---- 1.6------------
1975-07-22 19.0 24.6 15.4- 78.8- 5.3 2.3---- 0.3------------
1975-07-23 19.6 26.6 12.0- 75.5- 3.7 1.3---- 0.0------------
1975-07-24 21.3 28.8 12.8- 54.5- 3.3 2.0---- 0.0------------
1975-07-25 15.3 23.9 11.6- 92.5- 8.0 4.3---- 32.0------------
1975-07-26 12.8 16.6 11.0- 91.8- 8.0 3.7---- 6.7------------
1975-07-27 13.6 17.0 10.4- 80.8- 7.0 6.7---- 7.9------------
1975-07-28 14.5 18.4 11.4- 87.5- 7.7 4.3---- 1.3------------
1975-07-29 19.5 24.6 15.8- 69.8- 4.3 4.0---- 0.0------------
1975-07-30 15.5 21.2 11.1- 90.0- 5.7 2.3---- 3.2------------
1975-07-31 15.6 24.0 10.8- 92.3- 5.3 2.3---- 9.4------------
1975-08-01 16.8 24.4 11.9- 85.8- 3.3 2.0---- 3.6------------
1975-08-02 16.5 22.0 13.1- 81.5- 4.7 2.0---- 1.4------------
1975-08-03 16.9 21.0 12.9- 84.3- 5.7 2.3---- 0.3------------
1975-08-04 17.6 22.5 14.0- 79.8- 5.3 3.7---- 0.0------------
1975-08-05 18.0 22.9 15.4- 85.5- 7.3 1.0---- 0.0------------
1975-08-06 18.7 24.7 13.8- 85.5- 6.7 1.0---- 0.7------------
1975-08-07 20.6 26.1 13.7- 74.3- 4.7 3.3---- 2.3------------
1975-08-08 20.8 27.4 13.6- 71.0- 1.7 1.7---- 0.0------------
1975-08-09 20.6 28.3 11.3- 75.0- 2.3 1.3---- 0.5------------
1975-08-10 19.7 28.3 14.8- 79.0- 4.0 3.3---- 3.3------------
1975-08-11 19.7 26.4 13.5- 78.5- 3.7 1.0---- 0.0------------
1975-08-12 18.4 27.4 10.0- 77.5- 2.7 2.3---- 0.9------------
1975-08-13 13.4 18.4 10.8- 77.3- 4.0 3.7---- 0.0------------
1975-08-14 12.3 20.0 3.0- 71.3- 0.3 0.3---- 0.0------------
210.3 ms

 

Źródłem pochodzenia danych jest Instytut Meteorologii i Gospodarki Wodnej – Państwowy Instytut Badawczy. Dane Instytutu Meteorologii i Gospodarki Wodnej – Państwowego Instytutu Badawczego zostały przetworzone.

Dane źródłowe można odnaleźć na stronie https://dane.imgw.pl